BTY25KF LEVT-LPPT
Flight info
| Callsign | BTY25KF |
|---|---|
| Flight time | 1h 20m |
| Altitude | 35000 |
| Route | NEA DCT ARDID DCT INBOM |
| Aircraft | B738/M-SDE2E3FGHIRWXY/LB1 |
Departure
| Time | 2026-05-07 19:14 |
|---|---|
| Airport | Vitoria Airport (LEVT) |
Arrival
| Time | 2026-05-07 20:35 |
|---|---|
| Airport | Lisbon Humberto Delgado Airport (LPPT) |
| Time | Latitude | Longitude | Altitude | Speed | Heading |
|---|---|---|---|---|---|
| 2026-05-07 18:51 | 42.88055 | -2.73404 | 1687 ft | 0 kts | 37° |
| 2026-05-07 19:06 | 42.88062 | -2.73396 | 1685 ft | 4 kts | 37° |
| 2026-05-07 19:06 | 42.88096 | -2.73351 | 1676 ft | 8 kts | 71° |
| 2026-05-07 19:07 | 42.88069 | -2.73274 | 1679 ft | 12 kts | 120° |
| 2026-05-07 19:07 | 42.88097 | -2.73194 | 1676 ft | 11 kts | 38° |
| 2026-05-07 19:07 | 42.88167 | -2.73125 | 1682 ft | 14 kts | 35° |
| 2026-05-07 19:07 | 42.88203 | -2.73090 | 1676 ft | 0 kts | 35° |
| 2026-05-07 19:08 | 42.88221 | -2.73072 | 1681 ft | 8 kts | 36° |
| 2026-05-07 19:08 | 42.88280 | -2.73013 | 1682 ft | 12 kts | 47° |
| 2026-05-07 19:09 | 42.88265 | -2.72927 | 1680 ft | 10 kts | 124° |
| 2026-05-07 19:09 | 42.88225 | -2.72844 | 1680 ft | 10 kts | 111° |
| 2026-05-07 19:09 | 42.88260 | -2.72771 | 1676 ft | 11 kts | 36° |
| 2026-05-07 19:09 | 42.88333 | -2.72700 | 1676 ft | 15 kts | 36° |
| 2026-05-07 19:10 | 42.88427 | -2.72608 | 1679 ft | 18 kts | 36° |
| 2026-05-07 19:10 | 42.88538 | -2.72498 | 1679 ft | 20 kts | 36° |
| 2026-05-07 19:10 | 42.88648 | -2.72391 | 1683 ft | 19 kts | 36° |
| 2026-05-07 19:10 | 42.88753 | -2.72287 | 1676 ft | 18 kts | 36° |
| 2026-05-07 19:11 | 42.88856 | -2.72187 | 1676 ft | 18 kts | 36° |
| 2026-05-07 19:11 | 42.88954 | -2.72090 | 1676 ft | 17 kts | 36° |
| 2026-05-07 19:11 | 42.89056 | -2.71989 | 1682 ft | 20 kts | 36° |
| 2026-05-07 19:11 | 42.89182 | -2.71866 | 1679 ft | 24 kts | 36° |
| 2026-05-07 19:12 | 42.89326 | -2.71724 | 1681 ft | 26 kts | 36° |
| 2026-05-07 19:12 | 42.89469 | -2.71584 | 1680 ft | 24 kts | 36° |
| 2026-05-07 19:12 | 42.89602 | -2.71454 | 1680 ft | 22 kts | 36° |
| 2026-05-07 19:12 | 42.89615 | -2.71323 | 1688 ft | 15 kts | 129° |
| 2026-05-07 19:13 | 42.89553 | -2.71221 | 1680 ft | 8 kts | 142° |
| 2026-05-07 19:13 | 42.89514 | -2.71239 | 1682 ft | 4 kts | 214° |
| 2026-05-07 19:13 | 42.89486 | -2.71266 | 1678 ft | 6 kts | 215° |
| 2026-05-07 19:13 | 42.89367 | -2.71381 | 1681 ft | 52 kts | 216° |
| 2026-05-07 19:14 | 42.88876 | -2.71863 | 1679 ft | 120 kts | 216° |
| 2026-05-07 19:14 | 42.88046 | -2.72670 | 1789 ft | 164 kts | 215° |
| 2026-05-07 19:14 | 42.87111 | -2.73580 | 2600 ft | 161 kts | 215° |
| 2026-05-07 19:14 | 42.86172 | -2.74500 | 3324 ft | 170 kts | 214° |
| 2026-05-07 19:15 | 42.85161 | -2.75469 | 3893 ft | 189 kts | 213° |
| 2026-05-07 19:15 | 42.83997 | -2.76540 | 4237 ft | 211 kts | 213° |
| 2026-05-07 19:15 | 42.82754 | -2.77681 | 4825 ft | 217 kts | 213° |
| 2026-05-07 19:15 | 42.81498 | -2.78840 | 5532 ft | 219 kts | 213° |
| 2026-05-07 19:16 | 42.80227 | -2.80016 | 6214 ft | 222 kts | 213° |
| 2026-05-07 19:16 | 42.78942 | -2.81208 | 6846 ft | 225 kts | 213° |
| 2026-05-07 19:16 | 42.77642 | -2.82415 | 7502 ft | 228 kts | 213° |
| 2026-05-07 19:16 | 42.76328 | -2.83635 | 8167 ft | 230 kts | 213° |
| 2026-05-07 19:17 | 42.74999 | -2.84869 | 8814 ft | 233 kts | 213° |
| 2026-05-07 19:17 | 42.73658 | -2.86113 | 9475 ft | 234 kts | 214° |
| 2026-05-07 19:17 | 42.72463 | -2.87630 | 10079 ft | 238 kts | 231° |
| 2026-05-07 19:17 | 42.71470 | -2.89437 | 10690 ft | 239 kts | 232° |
| 2026-05-07 19:18 | 42.70478 | -2.91265 | 11295 ft | 241 kts | 232° |
| 2026-05-07 19:18 | 42.69477 | -2.93107 | 11899 ft | 243 kts | 232° |
| 2026-05-07 19:18 | 42.68463 | -2.94961 | 12482 ft | 247 kts | 232° |
| 2026-05-07 19:18 | 42.67394 | -2.96908 | 12683 ft | 268 kts | 232° |
| 2026-05-07 19:19 | 42.66225 | -2.99025 | 12922 ft | 290 kts | 232° |
| 2026-05-07 19:19 | 42.64996 | -3.01247 | 13557 ft | 298 kts | 232° |
| 2026-05-07 19:19 | 42.63747 | -3.03499 | 14287 ft | 299 kts | 232° |
| 2026-05-07 19:19 | 42.62488 | -3.05764 | 15039 ft | 301 kts | 232° |
| 2026-05-07 19:20 | 42.61194 | -3.08089 | 15361 ft | 319 kts | 232° |
| 2026-05-07 19:20 | 42.59810 | -3.10569 | 15598 ft | 337 kts | 232° |
| 2026-05-07 19:20 | 42.58378 | -3.13133 | 16187 ft | 343 kts | 232° |
| 2026-05-07 19:20 | 42.56931 | -3.15722 | 16936 ft | 345 kts | 233° |
| 2026-05-07 19:21 | 42.55496 | -3.18285 | 17663 ft | 347 kts | 233° |
| 2026-05-07 19:21 | 42.54010 | -3.20937 | 18357 ft | 350 kts | 233° |
| 2026-05-07 19:21 | 42.52527 | -3.23580 | 18940 ft | 353 kts | 233° |
| 2026-05-07 19:21 | 42.51052 | -3.26207 | 19538 ft | 356 kts | 233° |
| 2026-05-07 19:22 | 42.49548 | -3.28885 | 20150 ft | 359 kts | 233° |
| 2026-05-07 19:22 | 42.48031 | -3.31581 | 20746 ft | 361 kts | 233° |
| 2026-05-07 19:22 | 42.46501 | -3.34298 | 21327 ft | 364 kts | 233° |
| 2026-05-07 19:22 | 42.44957 | -3.37036 | 21902 ft | 367 kts | 233° |
| 2026-05-07 19:23 | 42.43403 | -3.39793 | 22460 ft | 370 kts | 233° |
| 2026-05-07 19:23 | 42.41833 | -3.42572 | 23034 ft | 373 kts | 233° |
| 2026-05-07 19:23 | 42.40249 | -3.45376 | 23511 ft | 378 kts | 233° |
| 2026-05-07 19:23 | 42.38643 | -3.48216 | 23920 ft | 382 kts | 233° |
| 2026-05-07 19:24 | 42.37024 | -3.51075 | 24372 ft | 385 kts | 234° |
| 2026-05-07 19:24 | 42.35368 | -3.54000 | 24426 ft | 399 kts | 234° |
| 2026-05-07 19:24 | 42.33655 | -3.57021 | 24494 ft | 411 kts | 234° |
| 2026-05-07 19:24 | 42.31895 | -3.60123 | 24615 ft | 420 kts | 234° |
| 2026-05-07 19:25 | 42.30103 | -3.63276 | 24919 ft | 425 kts | 234° |
| 2026-05-07 19:25 | 42.28300 | -3.66442 | 25355 ft | 425 kts | 234° |
| 2026-05-07 19:25 | 42.26497 | -3.69605 | 25783 ft | 426 kts | 235° |
| 2026-05-07 19:25 | 42.24683 | -3.72785 | 26153 ft | 428 kts | 235° |
| 2026-05-07 19:26 | 42.22859 | -3.75979 | 26483 ft | 431 kts | 235° |
| 2026-05-07 19:26 | 42.21025 | -3.79189 | 26827 ft | 433 kts | 235° |
| 2026-05-07 19:26 | 42.19206 | -3.82369 | 27164 ft | 435 kts | 236° |
| 2026-05-07 19:26 | 42.17351 | -3.85607 | 27482 ft | 437 kts | 236° |
| 2026-05-07 19:27 | 42.15486 | -3.88861 | 27813 ft | 439 kts | 236° |
| 2026-05-07 19:27 | 42.13613 | -3.92125 | 28154 ft | 441 kts | 236° |
| 2026-05-07 19:27 | 42.11734 | -3.95395 | 28499 ft | 442 kts | 237° |
| 2026-05-07 19:27 | 42.09856 | -3.98660 | 28934 ft | 441 kts | 237° |
| 2026-05-07 19:28 | 42.07982 | -4.01914 | 29432 ft | 438 kts | 238° |
| 2026-05-07 19:28 | 42.06118 | -4.05148 | 29952 ft | 436 kts | 238° |
| 2026-05-07 19:28 | 42.04265 | -4.08357 | 30369 ft | 433 kts | 238° |
| 2026-05-07 19:28 | 42.02462 | -4.11579 | 30794 ft | 427 kts | 243° |
| 2026-05-07 19:29 | 42.01004 | -4.15007 | 31242 ft | 419 kts | 248° |
| 2026-05-07 19:29 | 41.99696 | -4.18485 | 31701 ft | 414 kts | 249° |
| 2026-05-07 19:29 | 41.98435 | -4.21950 | 32118 ft | 411 kts | 250° |
| 2026-05-07 19:29 | 41.97181 | -4.25399 | 32524 ft | 409 kts | 249° |
| 2026-05-07 19:30 | 41.95924 | -4.28814 | 32941 ft | 407 kts | 249° |
| 2026-05-07 19:30 | 41.94660 | -4.32201 | 33371 ft | 404 kts | 249° |
| 2026-05-07 19:30 | 41.93395 | -4.35553 | 33780 ft | 401 kts | 249° |
| 2026-05-07 19:30 | 41.92130 | -4.38883 | 34116 ft | 400 kts | 249° |
| 2026-05-07 19:31 | 41.90861 | -4.42209 | 34297 ft | 401 kts | 249° |
| 2026-05-07 19:31 | 41.89584 | -4.45549 | 34476 ft | 403 kts | 249° |
| 2026-05-07 19:31 | 41.88303 | -4.48886 | 34757 ft | 402 kts | 249° |
| 2026-05-07 19:31 | 41.87024 | -4.52218 | 34921 ft | 403 kts | 248° |
| 2026-05-07 19:32 | 41.84435 | -4.58948 | 34910 ft | 405 kts | 248° |
| 2026-05-07 19:32 | 41.81881 | -4.65556 | 34918 ft | 399 kts | 248° |
| 2026-05-07 19:33 | 41.79334 | -4.72141 | 34935 ft | 397 kts | 248° |
| 2026-05-07 19:33 | 41.76792 | -4.78705 | 34939 ft | 397 kts | 248° |
| 2026-05-07 19:34 | 41.74246 | -4.85263 | 34943 ft | 397 kts | 248° |
| 2026-05-07 19:34 | 41.71694 | -4.91820 | 34943 ft | 397 kts | 248° |
| 2026-05-07 19:35 | 41.69136 | -4.98381 | 34926 ft | 398 kts | 247° |
| 2026-05-07 19:35 | 41.66985 | -5.03883 | 34931 ft | 399 kts | 247° |
| 2026-05-07 19:36 | 41.64411 | -5.10452 | 34925 ft | 399 kts | 247° |
| 2026-05-07 19:36 | 41.61832 | -5.17021 | 34930 ft | 400 kts | 247° |
| 2026-05-07 19:37 | 41.59243 | -5.23600 | 34914 ft | 400 kts | 247° |
| 2026-05-07 19:37 | 41.56668 | -5.30130 | 34914 ft | 400 kts | 247° |
| 2026-05-07 19:38 | 41.54069 | -5.36702 | 34893 ft | 400 kts | 246° |
| 2026-05-07 19:38 | 41.51470 | -5.43263 | 34903 ft | 400 kts | 246° |
| 2026-05-07 19:39 | 41.48865 | -5.49825 | 34906 ft | 400 kts | 246° |
| 2026-05-07 19:39 | 41.46259 | -5.56376 | 34905 ft | 400 kts | 246° |
| 2026-05-07 19:40 | 41.43644 | -5.62932 | 34903 ft | 400 kts | 246° |
| 2026-05-07 19:40 | 41.41026 | -5.69483 | 34886 ft | 400 kts | 246° |
| 2026-05-07 19:41 | 41.38407 | -5.76020 | 34894 ft | 400 kts | 245° |
| 2026-05-07 19:41 | 41.35784 | -5.82553 | 34895 ft | 400 kts | 245° |
| 2026-05-07 19:42 | 41.33159 | -5.89076 | 34896 ft | 400 kts | 245° |
| 2026-05-07 19:42 | 41.30531 | -5.95595 | 34890 ft | 400 kts | 245° |
| 2026-05-07 19:43 | 41.27899 | -6.02107 | 34894 ft | 400 kts | 245° |
| 2026-05-07 19:43 | 41.25263 | -6.08617 | 34895 ft | 400 kts | 245° |
| 2026-05-07 19:44 | 41.22625 | -6.15117 | 34887 ft | 400 kts | 245° |
| 2026-05-07 19:44 | 41.19985 | -6.21611 | 34890 ft | 399 kts | 245° |
| 2026-05-07 19:45 | 41.17326 | -6.28080 | 34862 ft | 400 kts | 242° |
| 2026-05-07 19:45 | 41.14092 | -6.34112 | 34879 ft | 402 kts | 237° |
| 2026-05-07 19:46 | 41.10710 | -6.40011 | 34880 ft | 402 kts | 237° |
| 2026-05-07 19:46 | 41.07341 | -6.45915 | 34888 ft | 401 kts | 237° |
| 2026-05-07 19:47 | 41.03988 | -6.51826 | 34885 ft | 401 kts | 236° |
| 2026-05-07 19:47 | 41.00639 | -6.57740 | 34886 ft | 401 kts | 236° |
| 2026-05-07 19:48 | 40.97291 | -6.63644 | 34882 ft | 401 kts | 236° |
| 2026-05-07 19:48 | 40.93943 | -6.69540 | 34885 ft | 401 kts | 236° |
| 2026-05-07 19:49 | 40.90596 | -6.75421 | 34883 ft | 400 kts | 236° |
| 2026-05-07 19:49 | 40.87270 | -6.81255 | 34891 ft | 400 kts | 236° |
| 2026-05-07 19:50 | 40.83920 | -6.87119 | 34897 ft | 399 kts | 235° |
| 2026-05-07 19:50 | 40.80570 | -6.92971 | 34891 ft | 399 kts | 235° |
| 2026-05-07 19:51 | 40.77222 | -6.98811 | 34891 ft | 399 kts | 235° |
| 2026-05-07 19:51 | 40.73874 | -7.04638 | 34899 ft | 398 kts | 235° |
| 2026-05-07 19:52 | 40.70523 | -7.10460 | 34897 ft | 398 kts | 235° |
| 2026-05-07 19:52 | 40.67175 | -7.16265 | 34886 ft | 398 kts | 236° |
| 2026-05-07 19:53 | 40.63829 | -7.22057 | 34894 ft | 397 kts | 235° |
| 2026-05-07 19:53 | 40.60481 | -7.27841 | 34900 ft | 397 kts | 235° |
| 2026-05-07 19:54 | 40.57128 | -7.33623 | 34901 ft | 397 kts | 235° |
| 2026-05-07 19:54 | 40.53776 | -7.39393 | 34911 ft | 397 kts | 234° |
| 2026-05-07 19:55 | 40.50421 | -7.45157 | 34916 ft | 397 kts | 235° |
| 2026-05-07 19:55 | 40.47061 | -7.50918 | 34909 ft | 397 kts | 234° |
| 2026-05-07 19:56 | 40.43700 | -7.56671 | 34904 ft | 397 kts | 234° |
| 2026-05-07 19:56 | 40.40337 | -7.62418 | 34929 ft | 397 kts | 234° |
| 2026-05-07 19:57 | 40.36963 | -7.68172 | 34925 ft | 398 kts | 234° |
| 2026-05-07 19:57 | 40.33576 | -7.73937 | 34917 ft | 399 kts | 234° |
| 2026-05-07 19:58 | 40.30181 | -7.79706 | 34922 ft | 400 kts | 234° |
| 2026-05-07 19:58 | 40.26786 | -7.85465 | 34915 ft | 400 kts | 234° |
| 2026-05-07 19:59 | 40.23385 | -7.91221 | 34918 ft | 399 kts | 234° |
| 2026-05-07 19:59 | 40.21698 | -7.94074 | 34552 ft | 406 kts | 234° |
| 2026-05-07 19:59 | 40.19960 | -7.97010 | 34195 ft | 400 kts | 234° |
| 2026-05-07 20:00 | 40.18283 | -7.99838 | 33693 ft | 397 kts | 233° |
| 2026-05-07 20:00 | 40.16602 | -8.02670 | 33242 ft | 392 kts | 233° |
| 2026-05-07 20:00 | 40.14937 | -8.05475 | 32786 ft | 388 kts | 233° |
| 2026-05-07 20:00 | 40.13289 | -8.08249 | 32344 ft | 385 kts | 233° |
| 2026-05-07 20:01 | 40.11657 | -8.10995 | 31901 ft | 381 kts | 233° |
| 2026-05-07 20:01 | 40.10034 | -8.13721 | 31488 ft | 378 kts | 233° |
| 2026-05-07 20:01 | 40.08428 | -8.16419 | 31062 ft | 375 kts | 233° |
| 2026-05-07 20:01 | 40.06831 | -8.19100 | 30640 ft | 373 kts | 233° |
| 2026-05-07 20:02 | 40.05241 | -8.21766 | 30225 ft | 371 kts | 233° |
| 2026-05-07 20:02 | 40.03659 | -8.24413 | 29792 ft | 369 kts | 233° |
| 2026-05-07 20:02 | 40.02078 | -8.27032 | 29338 ft | 366 kts | 230° |
| 2026-05-07 20:02 | 40.00124 | -8.29130 | 28925 ft | 365 kts | 211° |
| 2026-05-07 20:03 | 39.97826 | -8.30472 | 28620 ft | 363 kts | 199° |
| 2026-05-07 20:03 | 39.95335 | -8.31084 | 28339 ft | 369 kts | 191° |
| 2026-05-07 20:03 | 39.92743 | -8.31481 | 28033 ft | 379 kts | 190° |
| 2026-05-07 20:03 | 39.90099 | -8.31840 | 27725 ft | 384 kts | 189° |
| 2026-05-07 20:04 | 39.87443 | -8.32201 | 27396 ft | 383 kts | 190° |
| 2026-05-07 20:04 | 39.84813 | -8.32574 | 27090 ft | 378 kts | 190° |
| 2026-05-07 20:04 | 39.82206 | -8.32960 | 26782 ft | 375 kts | 190° |
| 2026-05-07 20:04 | 39.79622 | -8.33352 | 26470 ft | 372 kts | 190° |
| 2026-05-07 20:05 | 39.77058 | -8.33745 | 26189 ft | 370 kts | 190° |
| 2026-05-07 20:05 | 39.74513 | -8.34135 | 25897 ft | 366 kts | 190° |
| 2026-05-07 20:05 | 39.71999 | -8.34521 | 25599 ft | 361 kts | 191° |
| 2026-05-07 20:05 | 39.69639 | -8.35395 | 25291 ft | 349 kts | 208° |
| 2026-05-07 20:06 | 39.67626 | -8.37074 | 25041 ft | 341 kts | 221° |
| 2026-05-07 20:06 | 39.66035 | -8.39306 | 24782 ft | 335 kts | 231° |
| 2026-05-07 20:06 | 39.64640 | -8.41695 | 24512 ft | 330 kts | 232° |
| 2026-05-07 20:06 | 39.63287 | -8.44071 | 24250 ft | 325 kts | 232° |
| 2026-05-07 20:07 | 39.61936 | -8.46410 | 23983 ft | 322 kts | 232° |
| 2026-05-07 20:07 | 39.60584 | -8.48713 | 23728 ft | 319 kts | 231° |
| 2026-05-07 20:07 | 39.59239 | -8.50990 | 23470 ft | 317 kts | 231° |
| 2026-05-07 20:07 | 39.57716 | -8.53040 | 23161 ft | 318 kts | 216° |
| 2026-05-07 20:08 | 39.55843 | -8.54591 | 22922 ft | 323 kts | 212° |
| 2026-05-07 20:08 | 39.53901 | -8.56091 | 22632 ft | 326 kts | 211° |
| 2026-05-07 20:08 | 39.51958 | -8.57581 | 22360 ft | 323 kts | 211° |
| 2026-05-07 20:08 | 39.50032 | -8.59065 | 22096 ft | 321 kts | 211° |
| 2026-05-07 20:09 | 39.48123 | -8.60545 | 21815 ft | 319 kts | 211° |
| 2026-05-07 20:09 | 39.46230 | -8.62020 | 21574 ft | 316 kts | 211° |
| 2026-05-07 20:09 | 39.44353 | -8.63486 | 21323 ft | 315 kts | 211° |
| 2026-05-07 20:10 | 39.40621 | -8.66406 | 20829 ft | 313 kts | 211° |
| 2026-05-07 20:10 | 39.38760 | -8.67863 | 20579 ft | 312 kts | 211° |
| 2026-05-07 20:10 | 39.36904 | -8.69315 | 20329 ft | 312 kts | 210° |
| 2026-05-07 20:10 | 39.35047 | -8.70766 | 20080 ft | 312 kts | 210° |
| 2026-05-07 20:11 | 39.33194 | -8.72213 | 19860 ft | 311 kts | 210° |
| 2026-05-07 20:11 | 39.31347 | -8.73674 | 19595 ft | 311 kts | 213° |
| 2026-05-07 20:11 | 39.29641 | -8.75393 | 19340 ft | 311 kts | 219° |
| 2026-05-07 20:11 | 39.28029 | -8.77255 | 19089 ft | 311 kts | 220° |
| 2026-05-07 20:12 | 39.26439 | -8.79142 | 18838 ft | 310 kts | 220° |
| 2026-05-07 20:12 | 39.24852 | -8.81018 | 18589 ft | 309 kts | 220° |
| 2026-05-07 20:12 | 39.23284 | -8.82854 | 18336 ft | 308 kts | 220° |
| 2026-05-07 20:12 | 39.21672 | -8.84724 | 18061 ft | 307 kts | 220° |
| 2026-05-07 20:13 | 39.20084 | -8.86554 | 17786 ft | 306 kts | 220° |
| 2026-05-07 20:13 | 39.18521 | -8.88347 | 17526 ft | 304 kts | 219° |
| 2026-05-07 20:13 | 39.16944 | -8.90152 | 17276 ft | 302 kts | 219° |
| 2026-05-07 20:13 | 39.15378 | -8.91940 | 17035 ft | 300 kts | 219° |
| 2026-05-07 20:14 | 39.13816 | -8.93722 | 16784 ft | 299 kts | 219° |
| 2026-05-07 20:14 | 39.12264 | -8.95490 | 16551 ft | 298 kts | 219° |
| 2026-05-07 20:14 | 39.10717 | -8.97252 | 16310 ft | 296 kts | 219° |
| 2026-05-07 20:14 | 39.09174 | -8.99007 | 16073 ft | 295 kts | 219° |
| 2026-05-07 20:15 | 39.07636 | -9.00756 | 15839 ft | 294 kts | 219° |
| 2026-05-07 20:15 | 39.06104 | -9.02498 | 15610 ft | 293 kts | 219° |
| 2026-05-07 20:15 | 39.04576 | -9.04233 | 15366 ft | 292 kts | 219° |
| 2026-05-07 20:15 | 39.03059 | -9.05954 | 15060 ft | 290 kts | 219° |
| 2026-05-07 20:16 | 39.01547 | -9.07668 | 14698 ft | 290 kts | 219° |
| 2026-05-07 20:16 | 39.00003 | -9.09324 | 14378 ft | 288 kts | 210° |
| 2026-05-07 20:16 | 38.98228 | -9.10424 | 14140 ft | 281 kts | 201° |
| 2026-05-07 20:16 | 38.96426 | -9.11369 | 13821 ft | 280 kts | 200° |
| 2026-05-07 20:17 | 38.94621 | -9.12306 | 13455 ft | 280 kts | 200° |
| 2026-05-07 20:17 | 38.92820 | -9.13247 | 13110 ft | 279 kts | 200° |
| 2026-05-07 20:17 | 38.91033 | -9.14188 | 12791 ft | 277 kts | 201° |
| 2026-05-07 20:17 | 38.89262 | -9.15125 | 12446 ft | 276 kts | 201° |
| 2026-05-07 20:18 | 38.87499 | -9.16063 | 12283 ft | 269 kts | 201° |
| 2026-05-07 20:18 | 38.85803 | -9.16967 | 12210 ft | 259 kts | 201° |
| 2026-05-07 20:18 | 38.84168 | -9.17839 | 12130 ft | 250 kts | 201° |
| 2026-05-07 20:18 | 38.82590 | -9.18680 | 12053 ft | 242 kts | 200° |
| 2026-05-07 20:19 | 38.81056 | -9.19499 | 11845 ft | 237 kts | 201° |
| 2026-05-07 20:19 | 38.79527 | -9.20313 | 11544 ft | 239 kts | 201° |
| 2026-05-07 20:19 | 38.77994 | -9.21130 | 11283 ft | 238 kts | 201° |
| 2026-05-07 20:19 | 38.76468 | -9.21942 | 11036 ft | 237 kts | 201° |
| 2026-05-07 20:20 | 38.75463 | -9.22478 | 10998 ft | 237 kts | 201° |
| 2026-05-07 20:20 | 38.73414 | -9.23568 | 10946 ft | 238 kts | 202° |
| 2026-05-07 20:20 | 38.72455 | -9.24237 | 10903 ft | 238 kts | 217° |
| 2026-05-07 20:20 | 38.71341 | -9.25810 | 10744 ft | 239 kts | 230° |
| 2026-05-07 20:21 | 38.70345 | -9.27515 | 10450 ft | 240 kts | 230° |
| 2026-05-07 20:21 | 38.69343 | -9.29225 | 10177 ft | 240 kts | 230° |
| 2026-05-07 20:21 | 38.68340 | -9.30931 | 9941 ft | 239 kts | 230° |
| 2026-05-07 20:21 | 38.67440 | -9.32718 | 9675 ft | 240 kts | 240° |
| 2026-05-07 20:22 | 38.66738 | -9.34658 | 9406 ft | 240 kts | 243° |
| 2026-05-07 20:22 | 38.66065 | -9.36617 | 9126 ft | 240 kts | 243° |
| 2026-05-07 20:22 | 38.65393 | -9.38564 | 8875 ft | 238 kts | 243° |
| 2026-05-07 20:22 | 38.64718 | -9.40497 | 8612 ft | 237 kts | 243° |
| 2026-05-07 20:23 | 38.64039 | -9.42423 | 8320 ft | 237 kts | 243° |
| 2026-05-07 20:23 | 38.63358 | -9.44338 | 8095 ft | 236 kts | 243° |
| 2026-05-07 20:23 | 38.62679 | -9.46238 | 8018 ft | 234 kts | 243° |
| 2026-05-07 20:23 | 38.62000 | -9.48127 | 8019 ft | 235 kts | 243° |
| 2026-05-07 20:24 | 38.61317 | -9.50027 | 8014 ft | 236 kts | 243° |
| 2026-05-07 20:24 | 38.60631 | -9.51933 | 8011 ft | 236 kts | 243° |
| 2026-05-07 20:24 | 38.59781 | -9.53699 | 7990 ft | 233 kts | 221° |
| 2026-05-07 20:24 | 38.58383 | -9.54667 | 8013 ft | 231 kts | 195° |
| 2026-05-07 20:25 | 38.56784 | -9.54779 | 8014 ft | 233 kts | 174° |
| 2026-05-07 20:25 | 38.55186 | -9.54410 | 8015 ft | 234 kts | 171° |
| 2026-05-07 20:25 | 38.53587 | -9.53981 | 8013 ft | 235 kts | 170° |
| 2026-05-07 20:25 | 38.51978 | -9.53554 | 8010 ft | 237 kts | 171° |
| 2026-05-07 20:26 | 38.50364 | -9.53129 | 8011 ft | 238 kts | 169° |
| 2026-05-07 20:26 | 38.48862 | -9.52247 | 8006 ft | 242 kts | 142° |
| 2026-05-07 20:26 | 38.47831 | -9.50519 | 7656 ft | 257 kts | 113° |
| 2026-05-07 20:26 | 38.47590 | -9.48259 | 7352 ft | 262 kts | 84° |
| 2026-05-07 20:27 | 38.48156 | -9.46054 | 7066 ft | 263 kts | 64° |
| 2026-05-07 20:27 | 38.49075 | -9.44074 | 6793 ft | 263 kts | 59° |
| 2026-05-07 20:27 | 38.50076 | -9.42111 | 6525 ft | 263 kts | 58° |
| 2026-05-07 20:27 | 38.51076 | -9.40160 | 6249 ft | 262 kts | 58° |
| 2026-05-07 20:28 | 38.52068 | -9.38203 | 5970 ft | 261 kts | 58° |
| 2026-05-07 20:28 | 38.53029 | -9.36286 | 5726 ft | 251 kts | 58° |
| 2026-05-07 20:28 | 38.53948 | -9.34439 | 5436 ft | 241 kts | 58° |
| 2026-05-07 20:28 | 38.54828 | -9.32660 | 5178 ft | 233 kts | 57° |
| 2026-05-07 20:29 | 38.55676 | -9.30938 | 4951 ft | 226 kts | 57° |
| 2026-05-07 20:29 | 38.56501 | -9.29259 | 4718 ft | 220 kts | 57° |
| 2026-05-07 20:29 | 38.57312 | -9.27608 | 4501 ft | 218 kts | 56° |
| 2026-05-07 20:29 | 38.58113 | -9.25975 | 4279 ft | 215 kts | 56° |
| 2026-05-07 20:30 | 38.58908 | -9.24372 | 4078 ft | 211 kts | 52° |
| 2026-05-07 20:30 | 38.60004 | -9.23243 | 3891 ft | 198 kts | 15° |
| 2026-05-07 20:30 | 38.61297 | -9.22739 | 3637 ft | 196 kts | 20° |
| 2026-05-07 20:30 | 38.62503 | -9.21958 | 3401 ft | 192 kts | 21° |
| 2026-05-07 20:31 | 38.63722 | -9.21303 | 3150 ft | 190 kts | 19° |
| 2026-05-07 20:31 | 38.64937 | -9.20668 | 2883 ft | 187 kts | 19° |
| 2026-05-07 20:31 | 38.66132 | -9.20033 | 2623 ft | 185 kts | 20° |
| 2026-05-07 20:31 | 38.67291 | -9.19409 | 2368 ft | 176 kts | 20° |
| 2026-05-07 20:32 | 38.68390 | -9.18820 | 2151 ft | 165 kts | 19° |
| 2026-05-07 20:32 | 38.69401 | -9.18277 | 1923 ft | 152 kts | 18° |
| 2026-05-07 20:32 | 38.70374 | -9.17756 | 1730 ft | 150 kts | 19° |
| 2026-05-07 20:32 | 38.71309 | -9.17255 | 1520 ft | 145 kts | 18° |
| 2026-05-07 20:33 | 38.72224 | -9.16763 | 1323 ft | 142 kts | 19° |
| 2026-05-07 20:33 | 38.73134 | -9.16276 | 1115 ft | 142 kts | 19° |
| 2026-05-07 20:33 | 38.74049 | -9.15785 | 931 ft | 144 kts | 18° |
| 2026-05-07 20:33 | 38.74959 | -9.15298 | 742 ft | 142 kts | 18° |
| 2026-05-07 20:34 | 38.75875 | -9.14810 | 558 ft | 144 kts | 19° |
| 2026-05-07 20:34 | 38.76791 | -9.14304 | 377 ft | 140 kts | 18° |
| 2026-05-07 20:34 | 38.77615 | -9.13875 | 365 ft | 112 kts | 25° |
| 2026-05-07 20:34 | 38.78189 | -9.13560 | 369 ft | 68 kts | 24° |
| 2026-05-07 20:35 | 38.78375 | -9.13309 | 361 ft | 12 kts | 94° |
| 2026-05-07 20:35 | 38.78373 | -9.13298 | 366 ft | 0 kts | 98° |
| 2026-05-07 20:35 | 38.78373 | -9.13296 | 366 ft | 0 kts | 99° |
| 2026-05-07 20:35 | 38.78371 | -9.13287 | 366 ft | 3 kts | 107° |
| 2026-05-07 20:36 | 38.78348 | -9.13265 | 365 ft | 6 kts | 168° |
| 2026-05-07 20:36 | 38.78298 | -9.13278 | 362 ft | 8 kts | 200° |
| 2026-05-07 20:36 | 38.78240 | -9.13307 | 361 ft | 9 kts | 202° |
| 2026-05-07 20:36 | 38.78181 | -9.13338 | 360 ft | 9 kts | 202° |
| 2026-05-07 20:37 | 38.78113 | -9.13374 | 359 ft | 12 kts | 202° |
| 2026-05-07 20:37 | 38.78038 | -9.13411 | 360 ft | 12 kts | 190° |
| 2026-05-07 20:37 | 38.77940 | -9.13394 | 351 ft | 15 kts | 168° |
| 2026-05-07 20:37 | 38.77814 | -9.13360 | 346 ft | 19 kts | 168° |
| 2026-05-07 20:38 | 38.77674 | -9.13325 | 337 ft | 19 kts | 170° |
| 2026-05-07 20:38 | 38.77545 | -9.13310 | 337 ft | 18 kts | 168° |
| 2026-05-07 20:38 | 38.77431 | -9.13279 | 337 ft | 15 kts | 168° |
| 2026-05-07 20:38 | 38.77362 | -9.13263 | 337 ft | 9 kts | 172° |
| 2026-05-07 20:39 | 38.77300 | -9.13252 | 337 ft | 8 kts | 170° |
| 2026-05-07 20:39 | 38.77289 | -9.13227 | 335 ft | 2 kts | 96° |
| 2026-05-07 20:39 | 38.77290 | -9.13204 | 336 ft | 2 kts | 81° |
| 2026-05-07 20:39 | 38.77293 | -9.13189 | 332 ft | 2 kts | 78° |
| 2026-05-07 20:40 | 38.77295 | -9.13174 | 333 ft | 2 kts | 78° |
| 2026-05-07 20:40 | 38.77296 | -9.13166 | 335 ft | 0 kts | 78° |